Shempston Farm Airstrip

GB-0746 · Escócia, Reino Unido

História da METAR GB-0746 · Shempston Farm Airstrip

Abaixo você vê METARs dos últimos dias. Selecione um ano para navegar pelos METARs mais antigos, a partir do ano 2007.

18 de maio de 2024

Hora Código Clima Temp. Visibilidade Tecto Vento METAR/SPECI
18:50
V
14 °C 10 km+ 25.000 ft 080° 080° 8 kt METAR EGQS 181750Z 08008KT 9999 FEW020 BKN250 14/10 Q1018 RMK BLU
17:50
V
15 °C 10 km+ - 130° 130° 5 kt METAR EGQS 181650Z 13005KT 9999 FEW020 15/10 Q1017 RMK BLU
16:50
M
14 °C 10 km+ 2.100 ft 130° 130° 7 kt METAR EGQS 181550Z 13007KT 9999 BKN021 14/10 Q1018 RMK WHT
16:05
M
13 °C 10 km+ 1.700 ft 100° 100° 7 kt METAR EGQS 181505Z 10007KT 9999 FEW009 OVC017 13/10 Q1018 RMK WHT
15:50
I
13 °C 10 km+ 900 ft 080° 080° 7 kt METAR EGQS 181450Z AUTO 08007KT 9999 OVC009/// 13/10 Q1018
14:50
M
14 °C 10 km+ 1.700 ft 040° 040° 5 kt METAR EGQS 181350Z 04005KT 9999 FEW012 OVC017 14/10 Q1018 RMK WHT
13:50
M
14 °C 10 km+ 1.700 ft 020° 020° 4 kt METAR EGQS 181250Z 02004KT 9999 FEW012 OVC017 14/11 Q1018 RMK WHT
13:20
M
14 °C 10 km+ 1.200 ft 340° 340° 6 kt METAR EGQS 181220Z AUTO 34006KT 9999 OVC012/// 14/10 Q1018
12:50
M
14 °C 10 km+ 1.600 ft 340° 340° 4 kt METAR EGQS 181150Z 34004KT 9999 OVC016 14/10 Q1018 RMK WHT
11:50
M
13 °C 10 km+ 1.300 ft 360° 360° 3 kt METAR EGQS 181050Z 36003KT 9999 FEW010 OVC013 13/10 Q1018 RMK GRN
10:50
M
13 °C 10 km+ 1.200 ft 340° 340° 3 kt METAR EGQS 180950Z 34003KT 9999 FEW009 OVC012 13/11 Q1018 RMK GRN
09:50
M
12 °C 5 km 1.100 ft 060° 060° 3 kt METAR EGQS 180850Z 06003KT 5000 BR SCT004 OVC011 12/10 Q1018 RMK YLO2
08:50
L
12 °C 3,5 km 400 ft 080° 080° 3 kt METAR EGQS 180750Z 08003KT 3500 -DZ OVC004 12/11 Q1018 RMK YLO2
07:50
L
11 °C 3,5 km 400 ft 050° 050° 4 kt METAR EGQS 180650Z 05004KT 3500 -DZ OVC004 11/10 Q1017 RMK YLO2
06:50
I
12 °C 4 km 600 ft 060° 060° 4 kt METAR EGQS 180550Z 06004KT 4000 BR OVC006 12/10 Q1017 RMK YLO1
05:50
I
12 °C 7 km 700 ft 030° 030° 4 kt METAR EGQS 180450Z 03004KT 7000 BR OVC007 12/10 Q1016 RMK GRN
04:50
L
11 °C 4 km 400 ft 050° 050° 7 kt METAR EGQS 180350Z 05007KT 4000 BR BKN004 11/10 Q1016 RMK YLO2
03:50
L
12 °C 7 km 400 ft 040° 040° 5 kt METAR EGQS 180250Z 04005KT 7000 BR BKN004 12/11 Q1016 RMK YLO2
02:50
L
12 °C 2 km 400 ft 270° 270° 4 kt METAR EGQS 180150Z 27004KT 2000 BR BKN004 12/10 Q1016 RMK YLO2
02:20
L
11 °C 2 km 400 ft 200° 200° 3 kt METAR EGQS 180120Z 20003KT 2000 BR BKN004 11/10 Q1015 RMK YLO2
01:50
V
12 °C 10 km+ 11.000 ft 300° 300° 2 kt METAR EGQS 180050Z 30002KT 9999 SCT006 BKN110 12/10 Q1016 RMK YLO1
00:50
V
12 °C 10 km+ - 360° 360° 1 kt METAR EGQS 172350Z 36001KT CAVOK 12/11 Q1015 RMK BLU

17 de maio de 2024

Hora Código Clima Temp. Visibilidade Tecto Vento METAR/SPECI
23:50
V
12 °C 10 km+ - 360° 360° 3 kt METAR EGQS 172250Z 36003KT CAVOK 12/11 Q1015 RMK BLU
22:50
V
12 °C 10 km+ - 360° 360° 5 kt METAR EGQS 172150Z 36005KT CAVOK 12/11 Q1015 RMK BLU
21:50
V
13 °C 10 km+ 9.500 ft 120° 120° 1 kt METAR EGQS 172050Z AUTO 12001KT 9999 OVC095/// 13/10 Q1014
20:50
V
13 °C 10 km+ 9.500 ft 080° 080° 5 kt METAR EGQS 171950Z AUTO 08005KT 9999 OVC095/// 13/10 Q1014
19:50
V
13 °C 10 km+ - 080° 080° 6 kt METAR EGQS 171850Z 08006KT CAVOK 13/10 Q1014 RMK BLU
18:50
V
13 °C 10 km+ - 090° 090° 6 kt METAR EGQS 171750Z 09006KT CAVOK 13/10 Q1014 RMK BLU
18:20
V
13 °C 10 km+ - 070° 070° 7 kt METAR EGQS 171720Z 07007KT CAVOK 13/10 Q1014 NOSIG RMK BLU BLU
17:50
V
13 °C 10 km+ - 080° 080° 8 kt METAR EGQS 171650Z 08008KT CAVOK 13/10 Q1014 NOSIG RMK BLU BLU
17:20
V
14 °C 10 km+ - 080° 080° 9 kt METAR EGQS 171620Z 08009KT CAVOK 14/10 Q1014 NOSIG RMK BLU BLU
16:50
V
15 °C 10 km+ - 080° 080° 8 kt METAR EGQS 171550Z 08008KT CAVOK 15/11 Q1014 RMK BLU
15:50
V
13 °C 10 km+ - 030° 030° 10 kt METAR EGQS 171450Z 03010KT 9999 FEW004 SCT080 13/11 Q1014 NOSIG RMK BLU BLU
14:50
V
13 °C 10 km+ - 040° 040° 8 kt METAR EGQS 171350Z 04008KT 9999 5000NW VCFG FEW001 13/11 Q1014 BECMG 9999 NSW RMK WHT BECMG WHT
14:20
V
13 °C 10 km+ - 040° 040° 9 kt METAR EGQS 171320Z 04009KT 9999 1700N VCFG FEW001 13/11 Q1014 BECMG 9999 NSW RMK YLO2 BECMG BLU
13:50
V
13 °C 10 km+ - 040° 040° 9 kt METAR EGQS 171250Z 04009KT 9999 FEW003 13/11 Q1014 NOSIG RMK BLU BLU
13:20
V
13 °C 10 km+ - 020° 020° 9 kt METAR EGQS 171220Z 02009KT 9999 FEW004 SCT080 13/10 Q1014 NOSIG RMK BLU BLU
12:50
V
13 °C 10 km+ - 040° 040° 8 kt METAR EGQS 171150Z 04008KT 9999 FEW004 SCT080 13/10 Q1014 NOSIG RMK BLU BLU
12:20
V
13 °C 8 km - 040° 040° 6 kt METAR EGQS 171120Z 04006KT 8000 HZ FEW004 SCT080 13/10 Q1014 NOSIG RMK BLU BLU
11:50
V
12 °C 10 km+ - 020° 020° 5 kt METAR EGQS 171050Z 02005KT 9999 5000NW HZ FEW004 SCT084 12/10 Q1014 BECMG 9999 NSW RMK WHT BECMG BLU
11:36
V
13 °C 10 km+ - 030° 030° 5 kt METAR EGQS 171036Z 03005KT 9999 5000NW HZ FEW004 SCT080 13/10 Q1014 BECMG 9999 NSW RMK WHT BECMG BLU
11:20
M
12 °C 7 km 8.000 ft 030° 030° 5 kt METAR EGQS 171020Z 03005KT 7000 4000NW HZ FEW004 SCT005 BKN080 12/11 Q1014 BECMG 9999 NSW FEW005 RMK YLO1 BECMG BLU
10:50
M
12 °C 7 km 8.000 ft 030° 030° 6 kt METAR EGQS 170950Z 03006KT 7000 4000NW HZ FEW004 SCT005 BKN080 12/10 Q1014 BECMG 9999 NSW FEW005 RMK YLO1 BECMG BLU
10:20
M
12 °C 7 km - 010° 010° 4 kt METAR EGQS 170920Z 01004KT 7000 4000NW HZ SCT005 12/10 Q1014 BECMG 9999 NSW FEW006
09:50
M
13 °C 7 km - 360° 360° 6 kt METAR EGQS 170850Z 36006KT 7000 4000NW BR FEW005 SCT007 13/11 Q1014 NOSIG RMK GRN GRN
09:20
I
13 °C 7 km 600 ft 020° 020° 3 kt METAR EGQS 170820Z 02003KT 7000 4000NW BR BKN006 13/11 Q1014 NOSIG RMK YLO1 YLO1
08:50
I
12 °C 4 km 600 ft 340° 340° 2 kt METAR EGQS 170750Z 34002KT 4000 BR BKN006 12/11 Q1014 NOSIG RMK YLO1 YLO1
08:20
L
11 °C 4 km 400 ft 340° 340° 1 kt METAR EGQS 170720Z 34001KT 4000 BR BKN004 11/11 Q1013 TEMPO 2000 BR RMK YLO2 TEMPO YLO2
07:50
L
11 °C 3 km 400 ft 230° 230° 1 kt METAR EGQS 170650Z 23001KT 3000 BR OVC004 11/11 Q1013 TEMPO 2000 BR RMK YLO2 TEMPO YLO2
06:50
L
11 °C 1,2 km 200 ft 190° 190° 2 kt METAR EGQS 170550Z 19002KT 1200 BR SCT001 OVC002 11/10 Q1013 TEMPO 0700 PRFG RMK RED TEMPO RED
06:20
I
11 °C 2 km - 180° 180° 3 kt METAR EGQS 170520Z 18003KT 2000 BR SCT001 ///002 11/11 Q1013 RMK RED
05:50
L
11 °C 900 m 100 ft 200° 200° 4 kt METAR EGQS 170450Z 20004KT 0900 FG OVC001 11/10 Q1013 RMK RED
04:50
L
11 °C 600 m 100 ft 260° 260° 4 kt METAR EGQS 170350Z 26004KT 0600 FG OVC001 11/10 Q1013 RMK RED
03:50
L
11 °C 400 m 200 ft 250° 250° 5 kt METAR EGQS 170250Z 25005KT 0400 FG SCT001 BKN002 11/10 Q1012 RMK RED
02:50
L
11 °C 1,8 km 200 ft 230° 230° 6 kt METAR EGQS 170150Z 23006KT 1800 BR SCT001 BKN002 11/10 Q1012 RMK RED
02:32
L
10 °C 3 km 200 ft 240° 240° 5 kt METAR EGQS 170132Z 24005KT 3000 BR BKN002 10/09 Q1012 RMK AMB
01:50
M
10 °C 6 km - 230° 230° 4 kt METAR EGQS 170050Z 23004KT 6000 HZ FEW003 10/09 Q1012 RMK WHT
01:20
I
11 °C 4 km 9.400 ft 230° 230° 6 kt METAR EGQS 170020Z AUTO 23006KT 4000 BR BKN094/// 11/10 Q1012
00:50
V
11 °C 10 km+ 9.000 ft 230° 230° 7 kt METAR EGQS 162350Z 23007KT 9999 FEW004 BKN090 11/10 Q1012 RMK BLU

16 de maio de 2024

Hora Código Clima Temp. Visibilidade Tecto Vento METAR/SPECI
23:50
V
11 °C 10 km+ - 300° 300° 3 kt METAR EGQS 162250Z 30003KT CAVOK 11/09 Q1012 RMK BLU
22:50
V
12 °C 10 km+ - 270° 270° 5 kt METAR EGQS 162150Z 27005KT CAVOK 12/10 Q1012 RMK BLU
21:50
V
15 °C 10 km+ - 130° 130° 7 kt METAR EGQS 162050Z 13007KT CAVOK 15/11 Q1011 RMK BLU
20:50
V
13 °C 10 km+ - 090° 090° 11 kt METAR EGQS 161950Z 09011KT CAVOK 13/10 Q1010 RMK BLU
19:50
V
14 °C 10 km+ - 090° 090° 13 kt METAR EGQS 161850Z 09013KT CAVOK 14/10 Q1010 NOSIG RMK BLU BLU
18:50
V
14 °C 10 km+ - 080° 080° 17 kt METAR EGQS 161750Z 08017KT CAVOK 14/10 Q1010 RMK BLU
17:50
V
14 °C 10 km+ - 080° 080° 17 kt METAR EGQS 161650Z 08017KT CAVOK 14/10 Q1009 NOSIG RMK BLU BLU
17:20
V
14 °C 10 km+ - 080° 080° 18 kt METAR EGQS 161620Z 08018KT CAVOK 14/10 Q1009 NOSIG RMK BLU BLU
16:50
V
14 °C 10 km+ - 080° 080° 16 kt METAR EGQS 161550Z 08016KT CAVOK 14/10 Q1009 NOSIG RMK BLU BLU
16:20
V
15 °C 10 km+ - 080° 080° 15 kt METAR EGQS 161520Z 08015KT CAVOK 15/10 Q1009 NOSIG RMK BLU BLU
15:50
V
15 °C 10 km+ - 080° 080° 15 kt METAR EGQS 161450Z 08015KT CAVOK 15/11 Q1009 NOSIG RMK BLU BLU
15:20
V
15 °C 10 km+ - 060° 060° 10 kt METAR EGQS 161420Z 06010KT CAVOK 15/11 Q1009 NOSIG RMK BLU BLU
14:50
V
15 °C 10 km+ - 030° 030° 8 kt METAR EGQS 161350Z 03008KT CAVOK 15/11 Q1010 NOSIG RMK BLU BLU
14:20
V
14 °C 10 km+ - 020° 020° 8 kt METAR EGQS 161320Z 02008KT CAVOK 14/11 Q1010 NOSIG RMK BLU BLU
13:50
V
15 °C 10 km+ - 020° 020° 6 kt METAR EGQS 161250Z 02006KT 9999 SKC 15/12 Q1010 NOSIG RMK BLU BLU
13:20
V
14 °C 8 km - 020° 020° 7 kt METAR EGQS 161220Z 02007KT 8000 HZ FEW010 14/11 Q1010 NOSIG RMK BLU BLU
12:50
V
14 °C 10 km+ - 030° 030° 6 kt METAR EGQS 161150Z 03006KT 9999 7000W VCFG FEW010 14/11 Q1010 RMK WHT
12:20
V
14 °C 10 km+ - 020° 020° 7 kt METAR EGQS 161120Z 02007KT 9999 6000W VCFG FEW010 14/11 Q1010 BECMG 9999 NSW RMK WHT BECMG BLU
11:50
V
14 °C 10 km+ - 020° 020° 8 kt METAR EGQS 161050Z 02008KT 9999 5000W VCFG FEW010 14/11 Q1010 BECMG 9999 NSW RMK WHT BECMG BLU
11:20
V
14 °C 10 km+ - 040° 040° 5 kt METAR EGQS 161020Z 04005KT 9999 7000W VCFG FEW010 14/11 Q1009 BECMG 9999 NSW RMK WHT BECMG BLU
10:50
V
14 °C 10 km+ - 050° 050° 6 kt METAR EGQS 160950Z 05006KT 9999 7000SW VCFG FEW010 14/10 Q1009 NOSIG RMK WHT WHT
10:20
V
14 °C 8 km - 020° 020° 5 kt METAR EGQS 160920Z 02005KT 8000 VCFG FEW004 14/10 Q1009 NOSIG RMK BLU BLU
09:50
V
14 °C 10 km+ - 010° 010° 5 kt METAR EGQS 160850Z 01005KT 9999 FEW004 14/10 Q1009 NOSIG RMK BLU BLU
09:20
V
14 °C 10 km+ - 020° 020° 5 kt METAR EGQS 160820Z 02005KT 9999 FEW003 14/11 Q1009 NOSIG RMK BLU BLU
08:50
V
13 °C 8 km - 040° 040° 4 kt METAR EGQS 160750Z 04004KT 8000 VCFG FEW001 13/10 Q1009 NOSIG RMK BLU BLU
08:20
V
13 °C 8 km - 300° 300° 2 kt METAR EGQS 160720Z 30002KT 8000 VCFG FEW001 13/10 Q1009 NOSIG RMK BLU BLU
07:50
V
12 °C 10 km+ - 170° 170° 2 kt METAR EGQS 160650Z 17002KT 9999 7000S VCFG FEW001 12/10 Q1009 BECMG 9999 NSW RMK WHT BECMG BLU
06:50
V
11 °C 10 km+ - 010° 010° 1 kt METAR EGQS 160550Z 01001KT 9999 4000S VCFG FEW000 11/10 Q1009 BECMG 9999 NSW RMK GRN BECMG BLU
Relatar uma mudança